Main page
METAR-TAF:

METAR-TAF

Airports :

Bamako, Mali

Bamako–Modibo Keïta International Airport

latitude: 12-32N, longitude: 007-57W, elevation: 380 m

Current weather observation

The report was made 32 minutes ago, at 19:00 UTC
Wind 3 kt from the East/Northeast
Temperature 26°C
Humidity 32%
Pressure 1014 hPa
Visibility 10 km or more
no clouds below 1500 m and no cumulonimbus

METAR: GABS 171900Z 06003KT CAVOK 26/08 Q1014 NOSIG

Time: 19:32 (19:32 UTC)

Forecast

The report was made 2 hours and 32 minutes ago, at 17:00 UTC
Forecast valid from 17 at 18 UTC to 18 at 24 UTC
Wind 5 kt from the Northeast
Visibility: 8000 m
Probability 30% :
Temporary
from 18 at 06 UTC to 18 at 09 UTC
Visibility: 4500 m
haze

TAF: GABS 171700Z 1718/1824 04005KT 8000 NSC PROB30 TEMPO 1806/1809 4500 HZ

Weather observations and forecasts of more than 4000 airports (METAR and TAF reports).

The available stations are represented by yellow and red dots on the map.

Hover mouse over dot to see the name of the station.

Then click to see weather observations and forecasts.

To change the map : click on the green buttons with a black cross to zoom in, on the green button with a dash to zoom out, or on the green arrows for adjacent maps.


METAR-TAF: